Latest Weather Observations for Kadina

IDS60801

Issued at 5:01 pm CST Friday 17 August 2018 (issued every 10 minutes, with the page automatically refreshed every 10 minutes)

About weather observations | Map of weather stations | Latest weather observations for SA | Other Formats
Station Details ID: 022050 Name: KADINA AWS Lat: -33.97 Lon: 137.66 Height: 41.14 m
Data from the previous 72 hours. | See also: Recent months at Kadina
Date/Time
CST
Temp
°C
App
Temp
°C
Dew
Point
°C
Rel
Hum
%
Delta-T
°C
Wind Press
QNH
hPa
Press
MSL
hPa
Rain since
9am
mm
Dir  Spd
km/h
Gust
km/h
Spd
kts
Gust
kts
17/05:00pm 16.4 13.6 6.8 53 4.7 NW 11 15 6 8 1011.8 1011.8 0.0
17/04:30pm 17.0 12.8 5.9 48 5.4 WNW 17 20 9 11 1012.0 1012.0 0.0
17/04:00pm 17.5 12.6 5.1 44 6.0 W 20 26 11 14 1012.1 1012.1 0.0
17/03:30pm 17.3 12.8 7.1 51 5.1 WNW 20 28 11 15 1012.3 1012.3 0.0
17/03:00pm 17.1 12.2 6.9 51 5.1 NW 22 30 12 16 1012.4 1012.4 0.0
17/02:30pm 17.0 11.6 6.2 49 5.3 NNW 24 33 13 18 1012.7 1012.7 0.0
17/02:00pm 16.6 10.6 7.0 53 4.8 NNW 28 35 15 19 1012.9 1012.9 0.0
17/01:30pm 16.4 10.4 7.1 54 4.6 N 28 35 15 19 1013.3 1013.3 0.0
17/01:00pm 16.1 10.9 7.3 56 4.4 NNW 24 35 13 19 1013.9 1013.9 0.0
17/12:30pm 15.8 10.4 8.1 60 3.9 NNW 26 35 14 19 1014.5 1014.5 0.0
17/12:00pm 15.5 9.9 7.3 58 4.1 NNW 26 33 14 18 1015.1 1015.1 0.0
17/11:30am 14.7 8.8 7.3 61 3.6 NNW 28 35 15 19 1015.5 1015.5 0.0
17/11:00am 14.3 8.5 8.0 66 3.1 NNW 28 35 15 19 1015.9 1015.9 0.0
17/10:30am 13.9 9.0 8.3 69 2.8 NNW 24 35 13 19 1016.0 1016.0 0.0
17/10:00am 12.7 7.1 8.6 76 2.0 NNW 28 35 15 19 1016.2 1016.2 0.0
17/09:30am 12.2 6.9 8.5 78 1.8 NNW 26 32 14 17 1016.5 1016.5 0.0
17/09:00am 11.9 6.7 8.9 82 1.5 N 26 30 14 16 1016.4 1016.4 0.0
17/08:30am 11.2 7.7 8.9 86 1.1 N 17 24 9 13 1016.5 1016.5 0.0
17/08:00am 10.3 7.1 8.6 89 0.8 NNW 15 20 8 11 1016.2 1016.2 0.0
17/07:30am 8.5 4.6 7.1 91 0.7 NNW 17 19 9 10 1016.1 1016.1 0.0
17/07:00am 8.3 4.4 6.9 91 0.7 N 17 19 9 10 1015.7 1015.7 0.0
17/06:30am 9.0 5.3 7.9 93 0.5 NNW 17 24 9 13 1015.7 1015.7 0.0
17/06:00am 7.9 4.0 7.1 95 0.4 NNW 17 19 9 10 1015.7 1015.7 0.0
17/05:30am 8.0 4.5 7.2 95 0.4 N 15 17 8 9 1015.6 1015.6 0.0
17/05:00am 4.9 1.5 4.2 95 0.3 N 11 13 6 7 1015.7 1015.7 0.0
17/04:30am 3.2 -0.1 2.3 94 0.4 NNE 9 11 5 6 1015.6 1015.6 0.0
17/04:00am 2.1 -1.8 1.2 94 0.3 N 11 13 6 7 1015.7 1015.7 0.0
17/03:30am 1.8 -1.4 0.9 94 0.3 N 7 11 4 6 1016.1 1016.1 0.0
17/03:00am 2.2 0.4 1.2 93 0.4 CALM 0 0 0 0 1016.3 1016.3 0.0
17/02:30am 2.7 0.9 1.4 91 0.5 CALM 0 4 0 2 1016.6 1016.6 0.0
17/02:00am 5.9 2.6 4.5 91 0.6 NNW 11 13 6 7 1016.6 1016.6 0.0
17/01:30am 7.0 3.6 5.8 92 0.5 NNW 13 15 7 8 1016.9 1016.9 0.0
17/01:00am 7.4 3.7 6.3 93 0.5 NNW 15 17 8 9 1017.0 1017.1 0.0
17/12:30am 7.2 3.1 6.1 93 0.5 N 17 17 9 9 1016.9 1016.9 0.0
17/12:00am 6.9 3.1 5.8 93 0.5 N 15 17 8 9 1016.9 1016.9 0.0
 
Date/Time
CST
Temp
°C
App
Temp
°C
Dew
Point
°C
Rel
Hum
%
Delta-T
°C
Wind Press
QNH
hPa
Press
MSL
hPa
Rain since
9am
mm
Dir  Spd
km/h
Gust
km/h
Spd
kts
Gust
kts
16/11:30pm 6.8 3.7 5.4 91 0.6 N 11 13 6 7 1017.1 1017.2 0.0
16/11:00pm 8.2 5.0 6.8 91 0.6 NNW 13 13 7 7 1017.1 1017.2 0.0
16/10:30pm 8.2 5.3 6.7 90 0.7 NNW 11 11 6 6 1017.3 1017.4 0.0
16/10:00pm 7.4 4.3 5.7 89 0.8 NNW 11 13 6 7 1017.6 1017.7 0.0
16/09:30pm 7.6 4.2 5.9 89 0.8 NNW 13 13 7 7 1017.6 1017.7 0.0
16/09:00pm 7.2 3.7 5.3 88 0.8 NNW 13 13 7 7 1017.7 1017.8 0.0
16/08:30pm 7.6 3.7 5.4 86 1.0 NNW 15 15 8 8 1017.5 1017.6 0.0
16/08:00pm 8.1 4.5 5.2 82 1.3 NNW 13 15 7 8 1017.4 1017.5 0.0
16/07:30pm 9.7 6.8 6.4 80 1.5 NW 11 15 6 8 1017.3 1017.4 0.0
16/07:00pm 10.5 7.6 6.3 75 2.0 NW 11 13 6 7 1017.0 1017.1 0.0
16/06:30pm 11.4 9.3 6.5 72 2.3 NW 7 9 4 5 1016.8 1016.8 0.0
16/06:00pm 11.9 9.8 6.6 70 2.5 W 7 9 4 5 1016.6 1016.6 0.0
16/05:30pm 11.4 8.4 5.9 69 2.6 SW 11 13 6 7 1016.5 1016.5 0.0
16/05:00pm 12.8 9.4 5.7 62 3.3 SW 13 17 7 9 1016.4 1016.4 0.0
16/04:30pm 13.6 9.6 4.7 55 4.1 W 15 20 8 11 1016.4 1016.4 0.0
16/04:00pm 14.6 10.4 5.7 55 4.2 W 17 22 9 12 1016.4 1016.4 0.0
16/03:30pm 14.4 9.9 4.4 51 4.6 W 17 22 9 12 1016.5 1016.5 0.0
16/03:00pm 14.2 10.2 4.8 53 4.4 W 15 20 8 11 1016.8 1016.8 0.0
16/02:30pm 14.0 9.0 4.6 53 4.3 WNW 20 26 11 14 1017.0 1017.1 0.0
16/02:00pm 14.6 9.7 6.7 59 3.8 W 22 28 12 15 1017.1 1017.2 0.0
16/01:30pm 14.1 9.0 4.1 51 4.6 W 20 26 11 14 1017.3 1017.4 0.0
16/01:00pm 14.1 8.4 4.7 53 4.4 W 24 32 13 17 1017.6 1017.7 0.0
16/12:30pm 13.7 8.7 6.6 62 3.4 WNW 22 32 12 17 1017.8 1017.9 0.0
16/12:00pm 13.9 9.0 6.7 62 3.5 WNW 22 30 12 16 1018.2 1018.3 0.0
16/11:30am 13.8 9.3 8.4 70 2.7 WNW 22 28 12 15 1018.6 1018.7 0.0
16/11:00am 13.3 8.7 8.2 71 2.5 WNW 22 30 12 16 1018.7 1018.8 0.0
16/10:30am 12.6 8.4 8.3 75 2.1 WNW 20 28 11 15 1018.7 1018.8 0.0
16/10:00am 12.3 8.3 8.2 76 2.0 WNW 19 24 10 13 1018.8 1018.9 0.0
16/09:30am 12.5 8.4 8.8 78 1.8 W 20 26 11 14 1018.7 1018.8 0.0
16/09:00am 11.8 7.8 8.3 79 1.7 W 19 26 10 14 1018.5 1018.6 0.0
16/08:30am 10.3 9.1 9.4 94 0.4 WNW 6 9 3 5 1018.3 1018.4 0.0
16/08:00am 7.8 5.8 7.1 95 0.3 W 7 9 4 5 1018.0 1018.1 0.0
16/07:30am 5.3 2.7 4.4 94 0.4 W 7 9 4 5 1017.8 1017.9 0.0
16/07:00am 4.4 1.6 3.2 92 0.5 WNW 7 9 4 5 1017.5 1017.6 0.0
16/06:30am 6.6 4.3 5.6 93 0.4 W 7 9 4 5 1017.2 1017.3 0.0
16/06:00am 6.4 3.6 5.2 92 0.5 WNW 9 13 5 7 1017.2 1017.3 0.0
16/05:30am 6.8 3.7 5.4 91 0.6 W 11 13 6 7 1017.0 1017.1 0.0
16/05:00am 7.4 4.0 5.9 90 0.7 W 13 15 7 8 1017.0 1017.1 0.0
16/04:30am 8.2 4.6 6.8 91 0.6 W 15 17 8 9 1016.7 1016.7 0.0
16/04:00am 7.8 4.5 6.6 92 0.6 W 13 15 7 8 1016.8 1016.8 0.0
16/03:30am 7.7 4.4 6.2 90 0.7 W 13 17 7 9 1016.8 1016.8 0.0
16/03:00am 9.0 5.5 7.1 88 0.9 W 15 19 8 10 1016.7 1016.7 0.0
16/02:30am 8.9 5.3 6.9 87 0.9 WSW 15 20 8 11 1016.9 1016.9 0.0
16/02:00am 9.3 5.9 7.6 89 0.8 W 15 20 8 11 1017.0 1017.1 0.0
16/01:30am 9.8 6.1 7.9 88 0.9 W 17 20 9 11 1016.9 1016.9 0.0
16/01:00am 10.0 6.0 8.4 90 0.8 WSW 19 24 10 13 1016.9 1016.9 0.0
16/12:30am 9.7 6.4 8.1 90 0.8 W 15 19 8 10 1017.0 1017.1 0.0
16/12:00am 10.1 6.5 8.5 90 0.8 W 17 22 9 12 1016.9 1016.9 0.0
 
Date/Time
CST
Temp
°C
App
Temp
°C
Dew
Point
°C
Rel
Hum
%
Delta-T
°C
Wind Press
QNH
hPa
Press
MSL
hPa
Rain since
9am
mm
Dir  Spd
km/h
Gust
km/h
Spd
kts
Gust
kts
15/11:30pm 10.2 6.0 8.3 88 0.9 W 20 24 11 13 1017.0 1017.1 0.0
15/11:00pm 8.7 5.6 7.2 90 0.7 WNW 13 15 7 8 1017.0 1017.1 0.0
15/10:30pm 9.5 6.7 7.1 85 1.1 WNW 11 15 6 8 1017.0 1017.1 0.0
15/10:00pm 10.6 7.3 8.0 84 1.3 W 15 20 8 11 1017.1 1017.2 0.0
15/09:30pm 10.9 6.0 8.3 84 1.3 W 24 35 13 19 1017.0 1017.1 0.0
15/09:00pm 11.8 8.1 9.4 85 1.2 W 19 22 10 12 1016.8 1016.8 0.0
15/08:30pm 11.6 8.4 8.6 82 1.5 WSW 15 19 8 10 1016.7 1016.7 0.0
15/08:00pm 11.3 8.5 8.5 83 1.4 WSW 13 15 7 8 1016.5 1016.5 0.0
15/07:30pm 12.1 8.2 8.6 79 1.7 SW 19 26 10 14 1016.4 1016.4 0.0
15/07:00pm 12.1 7.5 8.2 77 1.9 SW 22 28 12 15 1015.9 1015.9 0.0
15/06:30pm 12.5 7.1 8.0 74 2.2 WSW 26 37 14 20 1015.5 1015.5 0.0
15/06:00pm 12.9 9.7 8.6 75 2.1 WSW 15 20 8 11 1015.1 1015.1 0.0
15/05:30pm 13.4 9.1 8.0 70 2.7 WSW 20 26 11 14 1014.8 1014.8 0.0
15/05:00pm 13.5 9.7 9.0 74 2.3 WSW 19 26 10 14 1014.7 1014.7 0.0
15/04:30pm 13.8 7.8 8.6 71 2.6 WSW 30 41 16 22 1014.6 1014.6 0.0
15/04:00pm 14.0 8.0 8.8 71 2.6 WSW 30 39 16 21 1014.4 1014.4 0.0
15/03:30pm 14.5 9.0 9.3 71 2.7 SW 28 39 15 21 1013.9 1013.9 0.0
15/03:00pm 15.7 9.0 9.8 68 3.1 WSW 35 50 19 27 1013.9 1013.9 0.0
15/02:30pm 16.6 10.1 9.1 61 3.9 W 33 48 18 26 1013.8 1013.8 0.0
15/02:00pm 16.2 10.0 9.2 63 3.6 W 32 43 17 23 1013.7 1013.7 0.0
15/01:30pm 17.1 11.4 9.8 62 3.8 WNW 30 41 16 22 1013.8 1013.8 0.0
15/01:00pm 16.6 11.5 10.5 67 3.2 NW 28 35 15 19 1013.9 1013.9 0.0
15/12:30pm 16.4 11.8 9.8 65 3.5 NW 24 28 13 15 1014.4 1014.4 0.0
15/12:00pm 15.6 11.1 9.9 69 3.0 NW 24 30 13 16 1014.5 1014.5 0.0
15/11:30am 16.3 12.1 11.0 71 2.8 NW 24 33 13 18 1014.7 1014.7 0.0
15/11:00am 15.6 10.8 10.2 70 2.8 NW 26 35 14 19 1015.0 1015.0 0.0
15/10:30am 15.5 11.2 10.7 73 2.5 NW 24 30 13 16 1014.6 1014.6 0.0
15/10:00am 14.3 9.6 9.3 72 2.6 NW 24 30 13 16 1014.7 1014.7 0.0
15/09:30am 14.4 10.3 8.6 68 2.9 NNW 20 24 11 13 1014.6 1014.6 0.0
15/09:00am 13.6 9.4 7.6 67 2.9 NW 19 22 10 12 1014.7 1014.7 0.0
15/08:30am 13.3 9.4 7.3 67 2.9 NW 17 20 9 11 1014.7 1014.7 0.0
15/08:00am 12.9 8.9 6.7 66 3.0 NNW 17 20 9 11 1014.2 1014.2 0.0
15/07:30am 12.3 8.3 6.6 68 2.7 NW 17 20 9 11 1014.0 1014.0 0.0
15/07:00am 12.6 8.1 6.0 64 3.1 NNW 19 20 10 11 1013.5 1013.5 0.0
15/06:30am 12.6 7.8 5.8 63 3.2 NNW 20 24 11 13 1013.4 1013.4 0.0
15/06:00am 12.5 8.0 6.1 65 3.0 NNW 19 24 10 13 1013.2 1013.2 0.0
15/05:30am 12.0 7.4 6.3 68 2.7 N 20 24 11 13 1012.9 1012.9 0.0
15/05:00am 11.9 7.9 6.8 71 2.4 N 17 20 9 11 1013.1 1013.1 0.0
15/04:30am 12.2 8.5 6.3 67 2.8 NNW 15 19 8 10 1013.3 1013.3 0.0
15/04:00am 12.5 7.0 6.1 65 3.0 NNW 24 30 13 16 1012.8 1012.8 0.0
15/03:30am 12.8 6.9 5.9 63 3.3 N 26 30 14 16 1013.1 1013.1 0.0
15/03:00am 13.1 8.0 6.0 62 3.4 NNW 22 30 12 16 1014.0 1014.0 0.0
15/02:30am 13.3 7.3 5.5 59 3.7 NNW 26 33 14 18 1013.5 1013.5 0.0
15/02:00am 13.1 5.9 5.0 58 3.8 N 32 41 17 22 1013.4 1013.4 0.0
15/01:30am 13.1 6.7 5.0 58 3.8 N 28 35 15 19 1013.6 1013.6 0.0
15/01:00am 13.6 6.3 4.7 55 4.1 N 32 39 17 21 1013.8 1013.8 0.0
15/12:30am 13.5 7.0 4.6 55 4.1 N 28 35 15 19 1013.8 1013.8 0.0
15/12:00am 13.5 6.6 4.6 55 4.1 N 30 37 16 20 1013.8 1013.8 0.0
 
Date/Time
CST
Temp
°C
App
Temp
°C
Dew
Point
°C
Rel
Hum
%
Delta-T
°C
Wind Press
QNH
hPa
Press
MSL
hPa
Rain since
9am
mm
Dir  Spd
km/h
Gust
km/h
Spd
kts
Gust
kts
14/11:30pm 13.5 6.7 5.2 57 3.9 N 30 37 16 20 1014.0 1014.0 0.0
14/11:00pm 13.6 6.5 5.3 57 3.9 N 32 41 17 22 1014.1 1014.1 0.0
14/10:30pm 13.9 7.0 4.8 54 4.2 N 30 37 16 20 1014.6 1014.6 0.0
14/10:00pm 14.0 7.2 4.9 54 4.2 N 30 35 16 19 1014.8 1014.8 0.0
14/09:30pm 14.2 7.7 4.8 53 4.4 N 28 35 15 19 1014.9 1014.9 0.0
14/09:00pm 14.5 8.0 4.5 51 4.6 N 28 33 15 18 1015.1 1015.1 0.0
14/08:30pm 13.9 8.3 5.3 56 4.0 N 24 32 13 17 1015.2 1015.2 0.0
14/08:00pm 13.5 7.7 4.6 55 4.1 N 24 28 13 15 1015.1 1015.1 0.0
14/07:30pm 14.4 8.3 4.7 52 4.5 N 26 30 14 16 1015.3 1015.3 0.0
14/07:00pm 14.5 8.8 5.0 53 4.5 NNW 24 28 13 15 1015.9 1015.9 0.0
14/06:30pm 14.5 9.0 5.8 56 4.1 NNW 24 30 13 16 1015.7 1015.7 0.0
14/06:00pm 14.6 9.5 5.9 56 4.2 NNW 22 28 12 15 1015.7 1015.7 0.0
14/05:30pm 15.8 10.4 6.5 54 4.5 NNW 24 32 13 17 1015.8 1015.8 0.0

Other Formats:

Comma delimited format used in spreadsheet applications
http://www.bom.gov.au/fwo/IDS60801/IDS60801.94685.axf

JavaScript Object Notation format (JSON) in row-major order
http://www.bom.gov.au/fwo/IDS60801/IDS60801.94685.json